Latest Coastal Weather Observations for Norah Head

IDN60701

Issued at 5:32 am EDT Saturday 31 January 2015 (issued every 10 minutes, with the page automatically refreshed every 10 minutes)

About coastal observations | Map of coastal stations | Coastal observations for NSW | Marine services | Other Formats
Station Details ID: 061366 Name: NORAH HEAD AWS Lat: -33.28 Lon: 151.58 Height: 18.8 m
Data from the previous 72 hours. | See also: Recent months at Norah Head
Date/Time
EDT
Temp

°C
Wind Pressure Rain
since 9am
mm
Weather Cloud Vis
km
Sea
Height
m
Swell
Dir
 
Speed
knots
Gust
knots
hPa Trend Height
m
Period
s
Dir
31/05:30am 16.8 WSW 6 8 1006.7 - 0.0 - - - - - - -
31/05:00am 17.1 WSW 6 8 1006.7 - 0.0 - - - - - - -
31/04:30am 17.5 WSW 6 8 1006.5 - 0.0 - - - - - - -
31/04:00am 17.8 WSW 6 9 1006.5 - 0.0 - - - - - - -
31/03:30am 17.9 WSW 6 7 1006.5 - 0.0 - - - - - - -
31/03:00am 18.0 W 6 7 1006.4 - 0.0 - - - - - - -
31/02:30am 18.2 W 6 7 1006.5 - 0.0 - - - - - - -
31/02:00am 18.5 W 5 7 1006.7 - 0.0 - - - - - - -
31/01:30am 18.7 W 6 7 1006.9 - 0.0 - - - - - - -
31/01:00am 19.0 W 5 7 1007.3 - 0.0 - - - - - - -
31/12:30am 19.4 WSW 4 6 1007.4 - 0.0 - - - - - - -
31/12:00am 20.0 SW 5 7 1007.4 - 0.0 - - - - - - -
 
Date/Time
EDT
Temp

°C
Wind Pressure Rain
since 9am
mm
Weather Cloud Vis
km
Sea
Height
m
Swell
Dir
 
Speed
knots
Gust
knots
hPa Trend Height
m
Period
s
Dir
30/11:30pm 20.2 SW 3 5 1007.5 - 0.0 - - - - - - -
30/11:00pm 21.7 S 7 12 1007.4 - 0.0 - - - - - - -
30/10:30pm 21.6 S 8 10 1007.4 - 0.0 - - - - - - -
30/10:00pm 21.5 S 8 12 1007.2 - 0.0 - - - - - - -
30/09:30pm 21.7 S 8 11 1007.1 - 0.0 - - - - - - -
30/09:00pm 21.6 S 5 8 1006.9 - 0.0 - - - - - - -
30/08:30pm 21.4 S 4 6 1006.5 - 0.0 - - - - - - -
30/08:00pm 21.5 S 3 4 1006.3 - 0.0 - - - - - - -
30/07:30pm 21.7 S 6 8 1006.0 - 0.0 - - - - - - -
30/07:00pm 22.9 SE 3 4 1005.7 - 0.0 - - - - - - -
30/06:30pm 22.9 SSE 7 9 1005.2 - 0.0 - - - - - - -
30/06:00pm 23.3 SSE 8 9 1005.1 - 0.0 - - - - - - -
30/05:30pm 23.3 SSE 10 12 1005.1 - 0.0 - - - - - - -
30/05:00pm 23.3 SSE 12 14 1005.1 - 0.0 - - - - - - -
30/04:30pm 23.1 SSE 13 15 1005.3 - 0.0 - - - - - - -
30/04:00pm 23.1 SSE 14 17 1005.5 - 0.0 - - - - - - -
30/03:30pm 23.0 SSE 16 18 1005.7 - 0.0 - - - - - - -
30/03:00pm 23.0 SSE 16 19 1005.8 - 0.0 - - - - - - -
30/02:46pm 23.4 S 14 20 1005.8 - 0.0 - - - - - - -
30/02:30pm 24.2 SE 5 9 1006.2 - 0.0 - - - - - - -
30/02:00pm 23.4 SE 10 13 1006.6 - 0.0 - - - - - - -
30/01:30pm 23.8 SE 7 9 1006.8 - 0.0 - - - - - - -
30/01:00pm 23.4 SSE 8 11 1007.1 - 0.0 - - - - - - -
30/12:30pm 22.4 SSW 5 10 1007.7 - 0.0 - - - - - - -
30/12:00pm 21.1 SSW 6 12 1008.1 - 0.0 - - - - - - -
30/11:30am 21.3 WSW 6 13 1008.7 - 0.0 - - - - - - -
30/11:00am 20.9 SW 3 5 1008.9 - 0.0 - - - - - - -
30/10:30am 20.1 SSW 11 15 1009.1 - 0.0 - - - - - - -
30/10:00am 19.5 SSW 6 11 1009.2 - 0.0 - - - - - - -
30/09:30am 19.8 SW 8 12 1009.3 - 0.0 - - - - - - -
30/09:00am 19.4 SW 7 11 1009.5 - 0.0 - - - - - - -
30/08:30am 18.6 WSW 6 11 1009.4 - 0.0 - - - - - - -
30/08:00am 17.5 WSW 5 9 1009.5 - 0.0 - - - - - - -
30/07:30am 16.4 W 4 8 1009.3 - 0.0 - - - - - - -
30/07:00am 15.4 W 4 7 1009.1 - 0.0 - - - - - - -
30/06:30am 14.8 W 4 7 1009.0 - 0.0 - - - - - - -
30/06:00am 14.8 W 4 7 1008.8 - 0.0 - - - - - - -
30/05:30am 14.9 W 4 8 1008.7 - 0.0 - - - - - - -
30/05:00am 15.3 WSW 5 7 1008.8 - 0.0 - - - - - - -
30/04:30am 15.6 WSW 6 11 1008.9 - 0.0 - - - - - - -
30/04:00am 15.5 WSW 6 9 1008.9 - 0.0 - - - - - - -
30/03:30am 15.8 WSW 6 10 1009.1 - 0.0 - - - - - - -
30/03:00am 15.9 WSW 6 10 1009.3 - 0.0 - - - - - - -
30/02:30am 16.2 WSW 6 8 1009.5 - 0.0 - - - - - - -
30/02:00am 16.6 WSW 6 9 1009.9 - 0.0 - - - - - - -
30/01:30am 17.2 SW 8 13 1010.2 - 0.0 - - - - - - -
30/01:00am 17.4 SW 7 11 1010.4 - 0.0 - - - - - - -
30/12:30am 17.6 SW 8 15 1010.7 - 0.0 - - - - - - -
30/12:00am 18.0 SW 8 14 1010.9 - 0.0 - - - - - - -
 
Date/Time
EDT
Temp

°C
Wind Pressure Rain
since 9am
mm
Weather Cloud Vis
km
Sea
Height
m
Swell
Dir
 
Speed
knots
Gust
knots
hPa Trend Height
m
Period
s
Dir
29/11:30pm 19.1 SSW 16 23 1011.0 - 0.0 - - - - - - -
29/11:00pm 19.7 SSW 19 26 1010.8 - 0.0 - - - - - - -
29/10:30pm 19.8 S 23 31 1010.8 - 0.0 - - - - - - -
29/10:00pm 19.8 SSW 23 32 1010.9 - 0.0 - - - - - - -
29/09:30pm 19.9 S 23 30 1010.9 - 0.0 - - - - - - -
29/09:03pm 20.0 S 23 34 1010.6 - 0.0 - - - - - - -
29/09:00pm 20.0 S 24 33 1010.6 - 0.0 - - - - - - -
29/08:36pm 20.0 S 20 32 1010.5 - 0.0 - - - - - - -
29/08:30pm 20.2 S 22 32 1010.4 - 0.0 - - - - - - -
29/08:20pm 20.1 S 19 29 1010.4 - 0.0 - - - - - - -
29/08:00pm 20.1 S 20 27 1010.3 - 0.0 - - - - - - -
29/07:30pm 20.2 S 22 30 1010.1 - 0.0 - - - - - - -
29/07:00pm 20.8 S 22 31 1009.9 - 0.0 - - - - - - -
29/06:30pm 20.6 S 23 31 1009.7 - 0.0 - - - - - - -
29/06:00pm 20.8 S 25 33 1009.6 - 0.0 - - - - - - -
29/05:30pm 20.9 S 23 30 1009.5 - 0.0 - - - - - - -
29/05:00pm 20.9 S 23 30 1009.8 - 0.0 - - - - - - -
29/04:30pm 20.7 S 23 29 1010.0 - 0.0 - - - - - - -
29/04:00pm 20.7 S 24 31 1010.0 - 0.0 - - - - - - -
29/03:30pm 20.7 S 24 31 1010.2 - 0.0 - - - - - - -
29/03:00pm 20.8 S 24 30 1010.4 - 0.0 - - - - - - -
29/02:30pm 20.9 S 22 28 1010.6 - 0.0 - - - - - - -
29/02:00pm 20.9 S 22 27 1010.8 - 0.0 - - - - - - -
29/01:30pm 20.5 S 23 28 1011.0 - 0.0 - - - - - - -
29/01:00pm 20.8 S 19 25 1011.4 - 0.0 - - - - - - -
29/12:30pm 20.7 S 19 25 1011.6 - 0.0 - - - - - - -
29/12:00pm 20.5 S 17 22 1011.7 - 0.0 - - - - - - -
29/11:30am 20.4 SSW 13 20 1012.0 - 0.0 - - - - - - -
29/11:00am 20.0 SSW 13 17 1012.2 - 0.0 - - - - - - -
29/10:30am 19.6 SSW 14 22 1012.3 - 0.0 - - - - - - -
29/10:00am 18.9 SSW 15 22 1012.2 - 0.0 - - - - - - -
29/09:30am 18.4 SSW 16 22 1012.2 - 0.0 - - - - - - -
29/09:00am 18.0 SSW 16 23 1012.4 - 10.0 - - - - - - -
29/08:30am 17.7 SW 14 21 1012.4 - 10.0 - - - - - - -
29/08:00am 17.4 SW 11 17 1012.0 - 10.0 - - - - - - -
29/07:30am 16.8 SW 10 14 1011.8 - 10.0 - - - - - - -
29/07:00am 15.6 SW 8 15 1011.7 - 10.0 - - - - - - -
29/06:30am 15.2 WSW 8 12 1011.4 - 10.0 - - - - - - -
29/06:00am 15.4 SW 8 15 1011.2 - 10.0 - - - - - - -
29/05:30am 15.7 SW 8 14 1010.9 - 10.0 - - - - - - -
29/05:00am 15.9 SW 9 13 1010.8 - 10.0 - - - - - - -
29/04:30am 16.2 SW 8 12 1010.7 - 10.0 - - - - - - -
29/04:00am 16.2 SW 7 11 1010.9 - 10.0 - - - - - - -
29/03:30am 16.7 SSW 12 17 1011.2 - 9.6 - - - - - - -
29/03:00am 17.1 SW 9 16 1011.2 - 9.0 Recent precip. - - - - - -
29/02:30am 17.3 SSW 13 21 1011.5 - 9.0 - - - - - - -
29/02:24am 17.7 SSE 16 25 1011.6 - 9.0 - - - - - - -
29/02:14am 18.1 SSW 11 26 1011.3 - 9.0 - - - - - - -
29/02:00am 17.6 SW 12 17 1011.6 - 7.6 - - - - - - -
29/01:30am 17.7 SW 8 15 1011.8 - 7.6 - - - - - - -
29/01:00am 17.5 SW 8 13 1012.1 - 7.6 - - - - - - -
29/12:30am 17.6 SW 7 13 1012.4 - 7.6 - - - - - - -
29/12:00am 17.9 SW 8 13 1012.6 - 7.6 - - - - - - -
 
Date/Time
EDT
Temp

°C
Wind Pressure Rain
since 9am
mm
Weather Cloud Vis
km
Sea
Height
m
Swell
Dir
 
Speed
knots
Gust
knots
hPa Trend Height
m
Period
s
Dir
28/11:30pm 17.7 WSW 8 13 1012.4 - 7.6 - - - - - - -
28/11:00pm 17.7 WSW 7 11 1012.7 - 7.6 - - - - - - -
28/10:30pm 18.9 SSW 14 22 1012.8 - 7.4 - - - - - - -
28/10:00pm 18.5 S 18 23 1012.9 - 7.4 - - - - - - -
28/09:30pm 18.9 S 23 30 1012.7 - 7.2 - - - - - - -
28/09:00pm 19.5 S 16 22 1012.6 - 7.2 Recent precip. - - - - - -
28/08:30pm 19.2 S 16 22 1012.6 - 7.2 - - - - - - -
28/08:00pm 18.0 S 17 25 1012.8 - 7.0 - - - - - - -
28/07:55pm 17.6 SSW 15 25 1012.8 - 6.8 - - - - - - -
28/07:30pm 18.3 SSW 7 11 1012.6 - 4.2 - - - - - - -
28/07:00pm 18.1 SSW 15 23 1012.7 - 4.0 - - - - - - -
28/06:30pm 18.7 SSW 11 16 1012.3 - 3.6 - - - - - - -
28/06:00pm 18.7 SW 6 11 1012.1 - 3.6 - - - - - - -
28/05:30pm 18.5 SW 7 10 1012.1 - 3.6 - - - - - - -
28/05:00pm 18.7 SSW 15 21 1012.4 - 3.6 - - - - - - -
28/04:39pm 19.7 SSW 15 25 1012.4 - 3.6 - - - - - - -
28/04:30pm 19.8 SSW 9 14 1012.4 - 3.6 - - - - - - -
28/04:00pm 19.7 S 11 13 1012.3 - 3.6 - - - - - - -
28/03:30pm 20.0 S 18 27 1012.4 - 3.6 - - - - - - -
28/03:29pm 20.1 S 18 27 1012.4 - 3.6 - - - - - - -
28/03:00pm 19.5 SSW 12 17 1012.6 - 3.6 Recent precip. - - - - - -
28/02:30pm 19.8 SSW 13 21 1012.7 - 3.6 - - - - - - -
28/02:00pm 19.4 SSE 10 13 1013.0 - 3.4 - - - - - - -
28/01:30pm 20.3 SSE 16 19 1013.1 - 3.4 - - - - - - -
28/01:00pm 20.6 SSE 20 24 1013.0 - 3.4 - - - - - - -
28/12:30pm 20.3 SSE 25 28 1012.8 - 3.4 - - - - - - -
28/12:00pm 20.3 SSE 23 26 1012.9 - 3.4 - - - - - - -
28/11:30am 20.6 SSE 23 27 1012.8 - 3.4 - - - - - - -
28/11:00am 20.5 SSE 24 28 1012.6 - 3.4 - - - - - - -
28/10:30am 20.2 SSE 25 29 1012.4 - 3.4 - - - - - - -
28/10:00am 18.7 SSE 22 27 1012.1 - 3.4 - - - - - - -
28/09:30am 17.8 S 11 17 1012.4 - 3.2 - - - - - - -
28/09:00am 18.1 SSW 10 16 1012.4 - 89.0 Rain - - - - - -
28/08:30am 18.1 WSW 6 9 1012.0 - 82.8 - - - - - - -
28/08:00am 17.9 SW 6 11 1011.7 - 81.6 - - - - - - -
28/07:30am 18.3 W 6 10 1011.2 - 81.2 - - - - - - -
28/07:00am 17.8 W 5 8 1010.9 - 80.6 - - - - - - -
28/06:30am 17.4 WSW 4 5 1010.7 - 79.8 - - - - - - -
28/06:00am 17.9 SSW 1 3 1010.1 - 78.8 Rain - - - - - -

Other Formats:

Comma delimited format used in spreadsheet applications
http://www.bom.gov.au/fwo/IDN60701/IDN60701.95770.axf

JavaScript Object Notation format (JSON) in row-major order
http://www.bom.gov.au/fwo/IDN60701/IDN60701.95770.json